sensor_id;sensor_type;location;lat;lon;timestamp;pressure;altitude;pressure_sealevel;temperature;humidity
64521;BME280;50896;46.714;17.322;2023-05-24T00:00:33;100254.38;;;17.23;100.00
64521;BME280;50896;46.714;17.322;2023-05-24T00:03:00;100260.38;;;17.25;100.00
64521;BME280;50896;46.714;17.322;2023-05-24T00:05:28;100256.66;;;17.19;100.00
64521;BME280;50896;46.714;17.322;2023-05-24T00:07:57;100254.38;;;17.23;100.00
64521;BME280;50896;46.714;17.322;2023-05-24T00:10:24;100258.50;;;17.25;100.00
64521;BME280;50896;46.714;17.322;2023-05-24T00:12:51;100256.84;;;17.31;100.00
64521;BME280;50896;46.714;17.322;2023-05-24T00:15:18;100252.31;;;17.32;100.00
64521;BME280;50896;46.714;17.322;2023-05-24T00:17:45;100243.41;;;17.31;100.00
64521;BME280;50896;46.714;17.322;2023-05-24T00:20:12;100247.31;;;17.35;100.00
64521;BME280;50896;46.714;17.322;2023-05-24T00:22:40;100250.63;;;17.37;100.00
64521;BME280;50896;46.714;17.322;2023-05-24T00:25:08;100248.53;;;17.39;100.00
64521;BME280;50896;46.714;17.322;2023-05-24T00:27:34;100242.78;;;17.36;100.00
64521;BME280;50896;46.714;17.322;2023-05-24T00:30:04;100251.88;;;17.41;100.00
64521;BME280;50896;46.714;17.322;2023-05-24T00:32:31;100244.16;;;17.52;100.00
64521;BME280;50896;46.714;17.322;2023-05-24T00:34:57;100251.00;;;17.48;100.00
64521;BME280;50896;46.714;17.322;2023-05-24T00:37:24;100246.88;;;17.45;100.00
64521;BME280;50896;46.714;17.322;2023-05-24T00:39:52;100261.38;;;17.37;100.00
64521;BME280;50896;46.714;17.322;2023-05-24T00:42:18;100259.94;;;17.28;100.00
64521;BME280;50896;46.714;17.322;2023-05-24T00:44:45;100260.16;;;17.20;100.00
64521;BME280;50896;46.714;17.322;2023-05-24T00:47:12;100271.34;;;17.23;100.00
64521;BME280;50896;46.714;17.322;2023-05-24T00:49:39;100262.44;;;17.23;100.00
64521;BME280;50896;46.714;17.322;2023-05-24T00:52:06;100263.66;;;17.27;100.00
64521;BME280;50896;46.714;17.322;2023-05-24T00:54:34;100261.19;;;17.32;100.00
64521;BME280;50896;46.714;17.322;2023-05-24T00:57:01;100258.72;;;17.31;100.00
64521;BME280;50896;46.714;17.322;2023-05-24T00:59:29;100261.97;;;17.39;100.00
64521;BME280;50896;46.714;17.322;2023-05-24T01:01:57;100268.16;;;17.47;100.00
64521;BME280;50896;46.714;17.322;2023-05-24T01:04:24;100268.16;;;17.53;100.00
64521;BME280;50896;46.714;17.322;2023-05-24T01:07:02;100266.69;;;17.57;100.00
64521;BME280;50896;46.714;17.322;2023-05-24T01:15:27;100269.13;;;17.72;100.00
64521;BME280;50896;46.714;17.322;2023-05-24T01:18:06;100266.03;;;17.62;100.00
64521;BME280;50896;46.714;17.322;2023-05-24T01:20:38;100265.66;;;17.58;100.00
64521;BME280;50896;46.714;17.322;2023-05-24T01:23:16;100264.00;;;17.51;100.00
64521;BME280;50896;46.714;17.322;2023-05-24T01:26:31;100274.16;;;17.55;100.00
64521;BME280;50896;46.714;17.322;2023-05-24T01:28:54;100267.72;;;17.50;100.00
64521;BME280;50896;46.714;17.322;2023-05-24T01:31:21;100266.69;;;17.57;100.00
64521;BME280;50896;46.714;17.322;2023-05-24T01:33:48;100267.09;;;17.61;100.00
64521;BME280;50896;46.714;17.322;2023-05-24T01:36:18;100267.91;;;17.62;100.00
64521;BME280;50896;46.714;17.322;2023-05-24T01:38:45;100264.16;;;17.69;100.00
64521;BME280;50896;46.714;17.322;2023-05-24T01:41:30;100272.44;;;17.68;100.00
64521;BME280;50896;46.714;17.322;2023-05-24T01:44:12;100274.72;;;17.71;100.00
64521;BME280;50896;46.714;17.322;2023-05-24T01:46:46;100274.66;;;17.77;100.00
64521;BME280;50896;46.714;17.322;2023-05-24T01:49:25;100281.09;;;17.76;100.00
64521;BME280;50896;46.714;17.322;2023-05-24T01:51:59;100273.63;;;17.79;100.00
64521;BME280;50896;46.714;17.322;2023-05-24T01:54:32;100275.28;;;17.80;100.00
64521;BME280;50896;46.714;17.322;2023-05-24T01:57:04;100280.25;;;17.76;100.00
64521;BME280;50896;46.714;17.322;2023-05-24T01:59:32;100291.84;;;17.76;100.00
64521;BME280;50896;46.714;17.322;2023-05-24T02:02:01;100285.84;;;17.74;100.00
64521;BME280;50896;46.714;17.322;2023-05-24T02:04:28;100280.69;;;17.73;100.00
64521;BME280;50896;46.714;17.322;2023-05-24T02:06:54;100288.50;;;17.81;100.00
64521;BME280;50896;46.714;17.322;2023-05-24T02:09:21;100297.19;;;17.83;100.00
64521;BME280;50896;46.714;17.322;2023-05-24T02:11:48;100291.81;;;17.83;100.00
64521;BME280;50896;46.714;17.322;2023-05-24T02:14:15;100293.03;;;17.94;100.00
64521;BME280;50896;46.714;17.322;2023-05-24T02:16:46;100299.44;;;17.93;100.00
64521;BME280;50896;46.714;17.322;2023-05-24T02:19:13;100298.41;;;17.94;100.00
64521;BME280;50896;46.714;17.322;2023-05-24T02:21:40;100307.50;;;17.93;100.00
64521;BME280;50896;46.714;17.322;2023-05-24T02:24:09;100304.22;;;17.91;100.00
64521;BME280;50896;46.714;17.322;2023-05-24T02:26:39;100297.00;;;17.85;100.00
64521;BME280;50896;46.714;17.322;2023-05-24T02:29:06;100291.19;;;17.88;100.00
64521;BME280;50896;46.714;17.322;2023-05-24T02:31:32;100294.91;;;17.87;100.00
64521;BME280;50896;46.714;17.322;2023-05-24T02:34:00;100294.31;;;17.78;100.00
64521;BME280;50896;46.714;17.322;2023-05-24T02:36:27;100296.38;;;17.76;100.00
64521;BME280;50896;46.714;17.322;2023-05-24T02:38:54;100295.78;;;17.81;100.00
64521;BME280;50896;46.714;17.322;2023-05-24T02:41:22;100297.47;;;17.62;100.00
64521;BME280;50896;46.714;17.322;2023-05-24T02:43:49;100296.03;;;17.52;100.00
64521;BME280;50896;46.714;17.322;2023-05-24T02:46:16;100296.69;;;17.48;100.00
64521;BME280;50896;46.714;17.322;2023-05-24T02:48:43;100303.72;;;17.42;100.00
64521;BME280;50896;46.714;17.322;2023-05-24T02:51:10;100297.34;;;17.43;100.00
64521;BME280;50896;46.714;17.322;2023-05-24T02:53:36;100291.75;;;17.31;100.00
64521;BME280;50896;46.714;17.322;2023-05-24T02:56:03;100295.91;;;17.34;100.00
64521;BME280;50896;46.714;17.322;2023-05-24T02:58:31;100289.06;;;17.45;100.00
64521;BME280;50896;46.714;17.322;2023-05-24T03:00:58;100291.69;;;17.58;100.00
64521;BME280;50896;46.714;17.322;2023-05-24T03:03:24;100291.09;;;17.56;100.00
64521;BME280;50896;46.714;17.322;2023-05-24T03:05:51;100282.78;;;17.64;100.00
64521;BME280;50896;46.714;17.322;2023-05-24T03:08:18;100291.31;;;17.54;100.00
64521;BME280;50896;46.714;17.322;2023-05-24T03:10:45;100296.69;;;17.54;100.00
64521;BME280;50896;46.714;17.322;2023-05-24T03:13:12;100299.56;;;17.53;100.00
64521;BME280;50896;46.714;17.322;2023-05-24T03:15:40;100307.44;;;17.48;100.00
64521;BME280;50896;46.714;17.322;2023-05-24T03:18:08;100305.63;;;17.35;100.00
64521;BME280;50896;46.714;17.322;2023-05-24T03:20:37;100310.34;;;17.46;100.00
64521;BME280;50896;46.714;17.322;2023-05-24T03:23:06;100322.34;;;17.37;100.00
64521;BME280;50896;46.714;17.322;2023-05-24T03:25:33;100323.34;;;17.49;100.00
64521;BME280;50896;46.714;17.322;2023-05-24T03:27:59;100313.03;;;17.39;100.00
64521;BME280;50896;46.714;17.322;2023-05-24T03:30:28;100325.66;;;17.39;100.00
64521;BME280;50896;46.714;17.322;2023-05-24T03:32:58;100324.84;;;17.32;100.00
64521;BME280;50896;46.714;17.322;2023-05-24T03:35:25;100324.81;;;17.45;100.00
64521;BME280;50896;46.714;17.322;2023-05-24T03:37:52;100322.31;;;17.43;100.00
64521;BME280;50896;46.714;17.322;2023-05-24T03:40:19;100327.09;;;17.41;100.00
64521;BME280;50896;46.714;17.322;2023-05-24T03:42:54;100322.31;;;17.43;100.00
64521;BME280;50896;46.714;17.322;2023-05-24T03:45:36;100320.88;;;17.48;100.00
64521;BME280;50896;46.714;17.322;2023-05-24T03:48:05;100326.69;;;17.45;100.00
64521;BME280;50896;46.714;17.322;2023-05-24T03:50:33;100322.53;;;17.42;100.00
64521;BME280;50896;46.714;17.322;2023-05-24T03:53:00;100320.88;;;17.54;100.00
64521;BME280;50896;46.714;17.322;2023-05-24T03:55:27;100335.13;;;17.55;100.00
64521;BME280;50896;46.714;17.322;2023-05-24T03:57:53;100326.69;;;17.45;100.00
64521;BME280;50896;46.714;17.322;2023-05-24T04:00:21;100338.25;;;17.45;100.00
64521;BME280;50896;46.714;17.322;2023-05-24T04:02:48;100339.47;;;17.63;100.00
64521;BME280;50896;46.714;17.322;2023-05-24T04:05:15;100336.56;;;17.51;100.00
64521;BME280;50896;46.714;17.322;2023-05-24T04:07:42;100341.75;;;17.52;100.00
64521;BME280;50896;46.714;17.322;2023-05-24T04:10:11;100331.63;;;17.48;100.00
64521;BME280;50896;46.714;17.322;2023-05-24T04:12:39;100336.56;;;17.51;100.00
64521;BME280;50896;46.714;17.322;2023-05-24T04:15:07;100344.03;;;17.55;100.00
64521;BME280;50896;46.714;17.322;2023-05-24T04:17:34;100339.66;;;17.61;100.00
64521;BME280;50896;46.714;17.322;2023-05-24T04:20:01;100344.16;;;17.81;100.00
64521;BME280;50896;46.714;17.322;2023-05-24T04:22:31;100352.03;;;17.82;100.00
64521;BME280;50896;46.714;17.322;2023-05-24T04:24:58;100350.56;;;17.80;100.00
64521;BME280;50896;46.714;17.322;2023-05-24T04:27:25;100357.16;;;17.90;100.00
64521;BME280;50896;46.714;17.322;2023-05-24T04:29:52;100356.75;;;17.87;100.00
64521;BME280;50896;46.714;17.322;2023-05-24T04:32:20;100362.56;;;17.77;100.00
64521;BME280;50896;46.714;17.322;2023-05-24T04:34:47;100362.38;;;17.72;100.00
64521;BME280;50896;46.714;17.322;2023-05-24T04:37:13;100358.84;;;17.85;100.00
64521;BME280;50896;46.714;17.322;2023-05-24T04:39:44;100366.72;;;17.73;100.00
64521;BME280;50896;46.714;17.322;2023-05-24T04:42:11;100358.06;;;17.64;100.00
64521;BME280;50896;46.714;17.322;2023-05-24T04:44:39;100351.03;;;17.63;100.00
64521;BME280;50896;46.714;17.322;2023-05-24T04:47:06;100364.44;;;17.76;100.00
64521;BME280;50896;46.714;17.322;2023-05-24T04:49:34;100360.28;;;17.94;100.00
64521;BME280;50896;46.714;17.322;2023-05-24T04:52:01;100352.63;;;17.84;100.00
64521;BME280;50896;46.714;17.322;2023-05-24T04:54:28;100357.16;;;17.97;100.00
64521;BME280;50896;46.714;17.322;2023-05-24T04:56:54;100363.38;;;17.84;100.00
64521;BME280;50896;46.714;17.322;2023-05-24T04:59:21;100370.22;;;17.93;100.00
64521;BME280;50896;46.714;17.322;2023-05-24T05:01:48;100367.53;;;17.80;100.00
64521;BME280;50896;46.714;17.322;2023-05-24T05:04:15;100377.47;;;17.66;100.00
64521;BME280;50896;46.714;17.322;2023-05-24T05:06:42;100375.41;;;17.75;100.00
64521;BME280;50896;46.714;17.322;2023-05-24T05:09:10;100376.88;;;17.71;100.00
64521;BME280;50896;46.714;17.322;2023-05-24T05:11:40;100379.75;;;17.69;100.00
64521;BME280;50896;46.714;17.322;2023-05-24T05:14:07;100384.50;;;17.74;100.00
64521;BME280;50896;46.714;17.322;2023-05-24T05:16:37;100381.19;;;17.72;100.00
64521;BME280;50896;46.714;17.322;2023-05-24T05:19:04;100383.88;;;17.72;100.00
64521;BME280;50896;46.714;17.322;2023-05-24T05:21:32;100373.97;;;17.79;100.00
64521;BME280;50896;46.714;17.322;2023-05-24T05:24:00;100384.06;;;17.90;100.00
64521;BME280;50896;46.714;17.322;2023-05-24T05:26:28;100385.53;;;17.86;100.00
64521;BME280;50896;46.714;17.322;2023-05-24T05:28:58;100372.91;;;17.80;100.00
64521;BME280;50896;46.714;17.322;2023-05-24T05:31:25;100376.84;;;17.77;100.00
64521;BME280;50896;46.714;17.322;2023-05-24T05:33:52;100376.22;;;17.82;100.00
64521;BME280;50896;46.714;17.322;2023-05-24T05:36:19;100380.16;;;17.80;100.00
64521;BME280;50896;46.714;17.322;2023-05-24T05:38:46;100383.66;;;17.73;100.00
64521;BME280;50896;46.714;17.322;2023-05-24T05:41:13;100390.31;;;17.71;100.00
64521;BME280;50896;46.714;17.322;2023-05-24T05:43:40;100390.72;;;17.68;100.00
64521;BME280;50896;46.714;17.322;2023-05-24T05:46:06;100391.97;;;17.65;100.00
64521;BME280;50896;46.714;17.322;2023-05-24T05:48:33;100380.78;;;17.75;100.00
64521;BME280;50896;46.714;17.322;2023-05-24T05:51:00;100389.03;;;17.80;100.00
64521;BME280;50896;46.714;17.322;2023-05-24T05:53:27;100396.50;;;17.78;100.00
64521;BME280;50896;46.714;17.322;2023-05-24T05:55:54;100395.84;;;17.83;100.00
64521;BME280;50896;46.714;17.322;2023-05-24T05:58:21;100396.25;;;17.93;100.00
64521;BME280;50896;46.714;17.322;2023-05-24T06:00:48;100389.25;;;17.99;100.00
64521;BME280;50896;46.714;17.322;2023-05-24T06:03:15;100389.84;;;17.94;100.00
64521;BME280;50896;46.714;17.322;2023-05-24T06:05:42;100388.38;;;18.05;100.00
64521;BME280;50896;46.714;17.322;2023-05-24T06:08:08;100398.47;;;18.16;100.00
64521;BME280;50896;46.714;17.322;2023-05-24T06:10:35;100392.28;;;18.16;100.00
64521;BME280;50896;46.714;17.322;2023-05-24T06:13:02;100394.56;;;18.12;100.00
64521;BME280;50896;46.714;17.322;2023-05-24T06:15:30;100388.59;;;18.10;100.00
64521;BME280;50896;46.714;17.322;2023-05-24T06:17:59;100394.75;;;18.17;100.00
64521;BME280;50896;46.714;17.322;2023-05-24T06:20:27;100402.59;;;18.19;100.00
64521;BME280;50896;46.714;17.322;2023-05-24T06:22:54;100402.38;;;18.27;100.00
64521;BME280;50896;46.714;17.322;2023-05-24T06:25:22;100398.81;;;18.33;100.00
64521;BME280;50896;46.714;17.322;2023-05-24T06:27:50;100394.72;;;18.24;100.00
64521;BME280;50896;46.714;17.322;2023-05-24T06:30:19;100407.13;;;18.25;100.00
64521;BME280;50896;46.714;17.322;2023-05-24T06:32:46;100404.03;;;18.28;100.00
64521;BME280;50896;46.714;17.322;2023-05-24T06:35:13;100415.41;;;18.23;100.00
64521;BME280;50896;46.714;17.322;2023-05-24T06:37:40;100412.72;;;18.23;100.00
64521;BME280;50896;46.714;17.322;2023-05-24T06:40:07;100424.34;;;18.24;100.00
64521;BME280;50896;46.714;17.322;2023-05-24T06:42:37;100413.75;;;18.29;100.00
64521;BME280;50896;46.714;17.322;2023-05-24T06:45:05;100424.50;;;18.29;100.00
64521;BME280;50896;46.714;17.322;2023-05-24T06:47:34;100414.53;;;18.36;100.00
64521;BME280;50896;46.714;17.322;2023-05-24T06:50:02;100413.47;;;18.44;100.00
64521;BME280;50896;46.714;17.322;2023-05-24T06:52:30;100418.19;;;18.49;100.00
64521;BME280;50896;46.714;17.322;2023-05-24T06:54:57;100424.03;;;18.45;100.00
64521;BME280;50896;46.714;17.322;2023-05-24T06:57:23;100426.75;;;18.39;100.00
64521;BME280;50896;46.714;17.322;2023-05-24T06:59:50;100429.22;;;18.40;100.00
64521;BME280;50896;46.714;17.322;2023-05-24T07:02:17;100426.06;;;18.50;100.00
64521;BME280;50896;46.714;17.322;2023-05-24T07:04:44;100438.03;;;18.61;100.00
64521;BME280;50896;46.714;17.322;2023-05-24T07:07:11;100441.44;;;18.82;100.00
64521;BME280;50896;46.714;17.322;2023-05-24T07:09:39;100433.16;;;18.90;100.00
64521;BME280;50896;46.714;17.322;2023-05-24T07:12:07;100431.00;;;18.99;100.00
64521;BME280;50896;46.714;17.322;2023-05-24T07:14:34;100429.16;;;18.99;100.00
64521;BME280;50896;46.714;17.322;2023-05-24T07:17:01;100434.69;;;19.04;100.00
64521;BME280;50896;46.714;17.322;2023-05-24T07:19:28;100434.44;;;19.12;100.00
64521;BME280;50896;46.714;17.322;2023-05-24T07:21:55;100442.31;;;19.14;100.00
64521;BME280;50896;46.714;17.322;2023-05-24T07:24:22;100441.44;;;19.20;100.00
64521;BME280;50896;46.714;17.322;2023-05-24T07:26:50;100434.22;;;19.14;100.00
64521;BME280;50896;46.714;17.322;2023-05-24T07:29:18;100444.56;;;19.17;100.00
64521;BME280;50896;46.714;17.322;2023-05-24T07:31:47;100440.00;;;19.18;100.00
64521;BME280;50896;46.714;17.322;2023-05-24T07:34:14;100442.69;;;19.18;100.00
64521;BME280;50896;46.714;17.322;2023-05-24T07:36:41;100434.44;;;19.12;100.00
64521;BME280;50896;46.714;17.322;2023-05-24T07:39:08;100445.41;;;19.18;100.00
64521;BME280;50896;46.714;17.322;2023-05-24T07:41:35;100445.94;;;19.26;100.00
64521;BME280;50896;46.714;17.322;2023-05-24T07:44:02;100444.91;;;19.27;100.00
64521;BME280;50896;46.714;17.322;2023-05-24T07:46:29;100439.69;;;19.33;100.00
64521;BME280;50896;46.714;17.322;2023-05-24T07:48:56;100443.03;;;19.28;100.00
64521;BME280;50896;46.714;17.322;2023-05-24T07:51:23;100439.88;;;19.31;100.00
64521;BME280;50896;46.714;17.322;2023-05-24T07:53:51;100448.09;;;19.43;100.00
64521;BME280;50896;46.714;17.322;2023-05-24T07:56:18;100449.84;;;19.56;100.00
64521;BME280;50896;46.714;17.322;2023-05-24T07:58:45;100447.78;;;19.83;100.00
64521;BME280;50896;46.714;17.322;2023-05-24T08:01:12;100455.13;;;19.94;100.00
64521;BME280;50896;46.714;17.322;2023-05-24T08:03:39;100456.03;;;20.07;100.00
64521;BME280;50896;46.714;17.322;2023-05-24T08:06:06;100455.00;;;20.26;100.00
64521;BME280;50896;46.714;17.322;2023-05-24T08:08:34;100449.06;;;20.36;100.00
64521;BME280;50896;46.714;17.322;2023-05-24T08:11:01;100449.06;;;20.36;100.00
64521;BME280;50896;46.714;17.322;2023-05-24T08:13:28;100451.88;;;20.41;100.00
64521;BME280;50896;46.714;17.322;2023-05-24T08:15:55;100447.31;;;20.60;100.00
64521;BME280;50896;46.714;17.322;2023-05-24T08:18:22;100456.16;;;20.68;100.00
64521;BME280;50896;46.714;17.322;2023-05-24T08:20:48;100442.66;;;20.68;100.00
64521;BME280;50896;46.714;17.322;2023-05-24T08:23:15;100462.75;;;20.72;100.00
64521;BME280;50896;46.714;17.322;2023-05-24T08:25:42;100453.09;;;20.64;100.00
64521;BME280;50896;46.714;17.322;2023-05-24T08:28:09;100454.34;;;20.61;100.00
64521;BME280;50896;46.714;17.322;2023-05-24T08:30:37;100463.88;;;20.64;100.00
64521;BME280;50896;46.714;17.322;2023-05-24T08:33:04;100449.16;;;20.78;100.00
64521;BME280;50896;46.714;17.322;2023-05-24T08:35:31;100466.72;;;20.88;100.00
64521;BME280;50896;46.714;17.322;2023-05-24T08:37:57;100461.97;;;20.83;100.00
64521;BME280;50896;46.714;17.322;2023-05-24T08:40:24;100466.41;;;20.77;100.00
64521;BME280;50896;46.714;17.322;2023-05-24T08:42:51;100463.88;;;20.82;100.00
64521;BME280;50896;46.714;17.322;2023-05-24T08:45:20;100463.41;;;20.86;100.00
64521;BME280;50896;46.714;17.322;2023-05-24T08:47:49;100466.06;;;20.74;100.00
64521;BME280;50896;46.714;17.322;2023-05-24T08:50:16;100452.19;;;20.70;100.00
64521;BME280;50896;46.714;17.322;2023-05-24T08:52:44;100452.00;;;20.65;100.00
64521;BME280;50896;46.714;17.322;2023-05-24T08:55:12;100454.50;;;20.85;100.00
64521;BME280;50896;46.714;17.322;2023-05-24T08:57:39;100459.56;;;20.93;100.00
64521;BME280;50896;46.714;17.322;2023-05-24T09:00:08;100458.53;;;21.06;100.00
64521;BME280;50896;46.714;17.322;2023-05-24T09:02:38;100465.94;;;21.11;100.00
64521;BME280;50896;46.714;17.322;2023-05-24T09:05:11;100475.63;;;21.30;100.00
64521;BME280;50896;46.714;17.322;2023-05-24T09:07:39;100463.78;;;21.31;100.00
64521;BME280;50896;46.714;17.322;2023-05-24T09:10:07;100467.19;;;21.39;100.00
64521;BME280;50896;46.714;17.322;2023-05-24T09:12:39;100466.84;;;21.35;100.00
64521;BME280;50896;46.714;17.322;2023-05-24T09:15:10;100475.34;;;21.50;100.00
64521;BME280;50896;46.714;17.322;2023-05-24T09:17:37;100475.53;;;21.37;100.00
64521;BME280;50896;46.714;17.322;2023-05-24T09:20:05;100476.72;;;21.41;100.00
64521;BME280;50896;46.714;17.322;2023-05-24T09:22:36;100472.41;;;21.52;100.00
64521;BME280;50896;46.714;17.322;2023-05-24T09:25:07;100469.72;;;21.64;100.00
64521;BME280;50896;46.714;17.322;2023-05-24T09:27:35;100473.84;;;21.55;100.00
64521;BME280;50896;46.714;17.322;2023-05-24T09:30:07;100477.34;;;21.67;100.00
64521;BME280;50896;46.714;17.322;2023-05-24T09:32:36;100471.16;;;21.78;100.00
64521;BME280;50896;46.714;17.322;2023-05-24T09:35:07;100463.25;;;21.89;100.00
64521;BME280;50896;46.714;17.322;2023-05-24T09:37:36;100461.25;;;21.96;100.00
64521;BME280;50896;46.714;17.322;2023-05-24T09:40:05;100459.72;;;22.12;100.00
64521;BME280;50896;46.714;17.322;2023-05-24T09:42:32;100455.59;;;22.09;100.00
64521;BME280;50896;46.714;17.322;2023-05-24T09:47:28;100462.75;;;22.15;100.00
64521;BME280;50896;46.714;17.322;2023-05-24T09:49:55;100471.69;;;22.28;100.00
64521;BME280;50896;46.714;17.322;2023-05-24T09:52:22;100458.25;;;22.33;100.00
64521;BME280;50896;46.714;17.322;2023-05-24T09:54:50;100465.06;;;22.47;100.00
64521;BME280;50896;46.714;17.322;2023-05-24T09:57:17;100468.44;;;22.55;100.00
64521;BME280;50896;46.714;17.322;2023-05-24T09:59:43;100465.06;;;22.47;100.00
64521;BME280;50896;46.714;17.322;2023-05-24T10:02:11;100468.25;;;22.32;100.00
64521;BME280;50896;46.714;17.322;2023-05-24T10:04:38;100469.13;;;22.09;100.00
64521;BME280;50896;46.714;17.322;2023-05-24T10:07:06;100464.19;;;22.06;100.00
64521;BME280;50896;46.714;17.322;2023-05-24T10:09:34;100465.44;;;22.27;100.00
64521;BME280;50896;46.714;17.322;2023-05-24T10:12:03;100462.72;;;22.27;100.00
64521;BME280;50896;46.714;17.322;2023-05-24T10:14:32;100473.09;;;22.30;100.00
64521;BME280;50896;46.714;17.322;2023-05-24T10:16:59;100465.91;;;22.24;100.00
64521;BME280;50896;46.714;17.322;2023-05-24T10:19:26;100472.72;;;22.27;100.00
64521;BME280;50896;46.714;17.322;2023-05-24T10:21:55;100468.03;;;22.34;100.00
64521;BME280;50896;46.714;17.322;2023-05-24T10:24:25;100466.72;;;22.36;100.00
64521;BME280;50896;46.714;17.322;2023-05-24T10:26:55;100459.88;;;22.46;100.00
64521;BME280;50896;46.714;17.322;2023-05-24T10:29:47;100461.66;;;22.40;100.00
64521;BME280;50896;46.714;17.322;2023-05-24T10:32:19;100455.19;;;22.41;100.00
64521;BME280;50896;46.714;17.322;2023-05-24T10:34:47;100467.28;;;22.50;100.00
64521;BME280;50896;46.714;17.322;2023-05-24T10:37:16;100467.97;;;22.58;100.00
64521;BME280;50896;46.714;17.322;2023-05-24T10:39:43;100468.91;;;22.63;100.00
64521;BME280;50896;46.714;17.322;2023-05-24T10:42:11;100464.50;;;22.74;100.00
64521;BME280;50896;46.714;17.322;2023-05-24T10:44:39;100460.66;;;22.87;100.00
64521;BME280;50896;46.714;17.322;2023-05-24T10:47:07;100453.16;;;23.06;100.00
64521;BME280;50896;46.714;17.322;2023-05-24T10:49:48;100465.19;;;23.27;100.00
64521;BME280;50896;46.714;17.322;2023-05-24T10:52:17;100464.38;;;23.27;100.00
64521;BME280;50896;46.714;17.322;2023-05-24T10:55:06;100466.09;;;23.33;100.00
64521;BME280;50896;46.714;17.322;2023-05-24T10:57:36;100453.22;;;23.40;99.12
64521;BME280;50896;46.714;17.322;2023-05-24T11:05:53;100459.91;;;23.88;51.37
64521;BME280;50896;46.714;17.322;2023-05-24T11:08:34;100450.28;;;23.98;49.59
64521;BME280;50896;46.714;17.322;2023-05-24T11:11:14;100451.56;;;24.12;49.95
64521;BME280;50896;46.714;17.322;2023-05-24T11:13:56;100450.69;;;24.29;49.64
64521;BME280;50896;46.714;17.322;2023-05-24T11:16:37;100447.34;;;24.21;47.49
64521;BME280;50896;46.714;17.322;2023-05-24T11:19:20;100447.25;;;24.38;46.51
64521;BME280;50896;46.714;17.322;2023-05-24T11:21:50;100451.63;;;24.39;46.70
64521;BME280;50896;46.714;17.322;2023-05-24T11:24:18;100449.72;;;24.40;45.24
64521;BME280;50896;46.714;17.322;2023-05-24T11:26:45;100447.16;;;24.50;46.82
64521;BME280;50896;46.714;17.322;2023-05-24T11:29:13;100432.84;;;24.60;45.91
64521;BME280;50896;46.714;17.322;2023-05-24T11:31:52;100439.41;;;24.64;47.07
64521;BME280;50896;46.714;17.322;2023-05-24T11:34:20;100438.25;;;24.82;47.22
64521;BME280;50896;46.714;17.322;2023-05-24T11:36:48;100434.19;;;24.85;43.84
64521;BME280;50896;46.714;17.322;2023-05-24T11:39:15;100437.59;;;24.70;44.30
64521;BME280;50896;46.714;17.322;2023-05-24T11:41:42;100432.88;;;24.87;45.77
64521;BME280;50896;46.714;17.322;2023-05-24T11:44:10;100437.13;;;24.78;49.12
64521;BME280;50896;46.714;17.322;2023-05-24T11:46:38;100431.94;;;25.04;44.85
64521;BME280;50896;46.714;17.322;2023-05-24T11:49:06;100430.69;;;25.17;45.31
64521;BME280;50896;46.714;17.322;2023-05-24T11:51:37;100428.28;;;25.25;45.32
64521;BME280;50896;46.714;17.322;2023-05-24T11:54:04;100421.81;;;25.32;47.14
64521;BME280;50896;46.714;17.322;2023-05-24T11:56:31;100427.31;;;25.04;49.42
64521;BME280;50896;46.714;17.322;2023-05-24T11:59:15;100423.88;;;24.15;50.34
64521;BME280;50896;46.714;17.322;2023-05-24T12:01:43;100417.53;;;24.27;49.84
64521;BME280;50896;46.714;17.322;2023-05-24T12:04:10;100411.56;;;24.52;46.19
64521;BME280;50896;46.714;17.322;2023-05-24T12:06:39;100396.06;;;24.52;46.95
64521;BME280;50896;46.714;17.322;2023-05-24T12:09:08;100406.25;;;24.62;49.55
64521;BME280;50896;46.714;17.322;2023-05-24T12:11:45;100406.94;;;24.52;47.92
64521;BME280;50896;46.714;17.322;2023-05-24T12:16:46;100406.75;;;24.59;51.24
64521;BME280;50896;46.714;17.322;2023-05-24T12:19:20;100406.00;;;24.64;49.86
64521;BME280;50896;46.714;17.322;2023-05-24T12:22:00;100399.50;;;24.65;51.47
64521;BME280;50896;46.714;17.322;2023-05-24T12:24:27;100403.00;;;24.38;50.33
64521;BME280;50896;46.714;17.322;2023-05-24T12:26:59;100401.72;;;24.23;50.07
64521;BME280;50896;46.714;17.322;2023-05-24T12:29:37;100411.00;;;24.28;50.84
64521;BME280;50896;46.714;17.322;2023-05-24T12:32:06;100400.13;;;24.05;50.00
64521;BME280;50896;46.714;17.322;2023-05-24T12:34:40;100397.06;;;23.97;50.77
64521;BME280;50896;46.714;17.322;2023-05-24T12:37:08;100394.44;;;23.85;50.42
64521;BME280;50896;46.714;17.322;2023-05-24T12:39:35;100388.59;;;23.76;51.17
64521;BME280;50896;46.714;17.322;2023-05-24T12:42:03;100390.13;;;23.67;48.24
64521;BME280;50896;46.714;17.322;2023-05-24T12:44:33;100389.38;;;23.71;48.09
64521;BME280;50896;46.714;17.322;2023-05-24T12:47:02;100378.03;;;23.58;49.69
64521;BME280;50896;46.714;17.322;2023-05-24T12:49:30;100377.06;;;23.47;49.00
64521;BME280;50896;46.714;17.322;2023-05-24T12:51:57;100373.53;;;23.46;48.63
64521;BME280;50896;46.714;17.322;2023-05-24T12:54:26;100379.72;;;23.42;51.04